Morley, United Kingdom
Current Conditions -  °F | °C
As of 5:50 AM on Saturday 20 Dec 2014 (Local Time) from EGNM Reporting Station
Rain Showers Rain Showers  
Wind Chill: 31°   Ceiling: Unl
Heat Index: 41°   Visibility: 6mi
Dew Point: 37°   Wind: 22mph
Humidity: 87%   Direction: 280°W
Pressure: 29.97"   Gusts: 39mph
Location:  53.74°N, 1.6°W
Report Text: EGNM 200550Z 28019G34KT 220V310 9999 -SHRA SCT020 05/03 Q1015
Loading
Personal Weather Stations






























Interactive Weather Map New forecast layout! Learn more

10-Day Weather Forecast

Advertisements
Track Severe Weather on mobile